Main page
METAR-TAF:

METAR-TAF

Airports :

Randolph Air Force Base

Universal City, Texas, United States

latitude: 29-32N, longitude: 098-17W, elevation: 761 ft

Current weather observation

The report was made 29 minutes ago, at 12:25 UTC
Wind 6 mph from the East/Southeast
Temperature 79°F
Humidity 89%
Pressure 29.79 in. Hg
Visibility: 10 miles
Scattered clouds at a height of 1700 ft
Scattered clouds at a height of 2400 ft

METAR: KRND 171225Z AUTO 12005KT 10SM SCT017 SCT024 26/24 A2979 RMK AO2 SLP078 $

Time: 07:54 (12:54 UTC)


TAF: missing

Weather observations and forecasts of more than 4000 airports (METAR and TAF reports).

The available stations are represented by yellow and red dots on the map.

Hover mouse over dot to see the name of the station.

Then click to see weather observations and forecasts.

To change the map : click on the green buttons with a black cross to zoom in, on the green button with a dash to zoom out, or on the green arrows for adjacent maps.


METAR-TAF: